nws-alerts: Checking more than four warning/county codes can delay the loading of your pages. You should use a cron job to get the data.
EllijayWeather Station Historical Data
Daily Summary for April 21, 2019 Units:  English    Metric   Both
Daily Weekly Monthly Yearly Custom
  High: Low: Average:
Temperature: 66.7 °F 41.2 °F 52.4 °F
Dew Point: 45.9 °F 31.8 °F 41 °F
Humidity: 99% 29% 72%
Wind Speed: 8.1mph 0.0mph 0.4mph
Wind Gust: 11.0mph - -
Wind- - WSW
Pressure: 30.22 in 30.00 in -
Precipitation: 0.01 in    
Historical Graphs
 
 
Tabular Data for April 21, 2019
Time Temperature Dew Point Pressure Wind Wind Speed Wind Gust Humidity Rainfall Rate (Hourly) solar
00:04 43.3 °F 42.8 °F 30.00 in Calm     98% 0.00 in meteobridge W/m2
00:09 43.2 °F 42.6 °F 30.01 in Calm     98% 0.00 in meteobridge W/m2
00:14 43.3 °F 42.8 °F 30.01 in Calm     98% 0.00 in meteobridge W/m2
00:19 43.2 °F 42.6 °F 30.01 in Calm     98% 0.00 in meteobridge W/m2
00:24 43.2 °F 42.6 °F 30.01 in Calm     98% 0.00 in meteobridge W/m2
00:29 43.2 °F 42.6 °F 30.01 in Calm     98% 0.00 in meteobridge W/m2
00:34 43.2 °F 42.6 °F 30.01 in Calm     98% 0.00 in meteobridge W/m2
00:39 43.2 °F 42.6 °F 30.01 in Calm     98% 0.00 in meteobridge W/m2
00:44 43.2 °F 42.6 °F 30.01 in Calm     98% 0.00 in meteobridge W/m2
00:49 43.2 °F 42.6 °F 30.01 in Calm     98% 0.00 in meteobridge W/m2
00:54 43.2 °F 42.6 °F 30.01 in Calm     98% 0.00 in meteobridge W/m2
00:59 43.2 °F 42.6 °F 30.01 in Calm     98% 0.00 in meteobridge W/m2
01:04 43.2 °F 42.6 °F 30.01 in Calm     98% 0.00 in meteobridge W/m2
01:09 43.2 °F 42.6 °F 30.01 in Calm     98% 0.00 in meteobridge W/m2
01:14 43.0 °F 42.4 °F 30.01 in Calm     98% 0.00 in meteobridge W/m2
01:19 43.0 °F 42.4 °F 30.01 in Calm     98% 0.00 in meteobridge W/m2
01:24 43.0 °F 42.4 °F 30.01 in Calm     98% 0.00 in meteobridge W/m2
01:29 43.0 °F 42.4 °F 30.01 in Calm     98% 0.00 in meteobridge W/m2
01:34 43.0 °F 42.4 °F 30.01 in Calm     98% 0.00 in meteobridge W/m2
01:39 43.0 °F 42.4 °F 30.01 in Calm     98% 0.00 in meteobridge W/m2
01:44 42.8 °F 42.3 °F 30.01 in Calm     98% 0.00 in meteobridge W/m2
01:49 43.0 °F 42.4 °F 30.02 in Calm     98% 0.00 in meteobridge W/m2
01:54 43.0 °F 42.4 °F 30.02 in Calm     98% 0.00 in meteobridge W/m2
01:59 43.0 °F 42.8 °F 30.02 in Calm     99% 0.00 in meteobridge W/m2
02:04 43.0 °F 42.8 °F 30.02 in Calm     99% 0.00 in meteobridge W/m2
02:09 43.0 °F 42.8 °F 30.02 in Calm     99% 0.00 in meteobridge W/m2
02:14 43.0 °F 42.8 °F 30.02 in Calm     99% 0.00 in meteobridge W/m2
02:19 43.0 °F 42.8 °F 30.02 in Calm     99% 0.00 in meteobridge W/m2
02:24 43.2 °F 43.0 °F 30.02 in Calm     99% 0.00 in meteobridge W/m2
02:29 43.0 °F 42.4 °F 30.02 in Calm     98% 0.00 in meteobridge W/m2
02:34 43.0 °F 42.4 °F 30.02 in Calm     98% 0.00 in meteobridge W/m2
02:39 43.0 °F 42.4 °F 30.02 in Calm     98% 0.00 in meteobridge W/m2
02:44 43.0 °F 42.8 °F 30.02 in Calm     99% 0.00 in meteobridge W/m2
02:49 43.0 °F 42.4 °F 30.02 in Calm     98% 0.00 in meteobridge W/m2
02:54 43.0 °F 42.4 °F 30.02 in Calm     98% 0.00 in meteobridge W/m2
02:59 43.0 °F 42.4 °F 30.02 in Calm     98% 0.00 in meteobridge W/m2
03:04 43.0 °F 42.4 °F 30.03 in Calm     98% 0.00 in meteobridge W/m2
03:09 43.0 °F 42.8 °F 30.03 in Calm     99% 0.00 in meteobridge W/m2
03:14 43.0 °F 42.8 °F 30.03 in Calm     99% 0.00 in meteobridge W/m2
03:19 43.0 °F 42.8 °F 30.03 in Calm     99% 0.00 in meteobridge W/m2
03:24 43.2 °F 43.0 °F 30.03 in Calm     99% 0.00 in meteobridge W/m2
03:29 43.0 °F 42.8 °F 30.03 in Calm     99% 0.00 in meteobridge W/m2
03:34 43.0 °F 42.8 °F 30.03 in Calm     99% 0.00 in meteobridge W/m2
03:39 43.0 °F 42.8 °F 30.03 in Calm     99% 0.00 in meteobridge W/m2
03:44 43.0 °F 42.8 °F 30.02 in Calm     99% 0.00 in meteobridge W/m2
03:49 43.0 °F 42.8 °F 30.03 in Calm     99% 0.00 in meteobridge W/m2
03:54 43.2 °F 43.0 °F 30.03 in Calm     99% 0.00 in meteobridge W/m2
03:59 43.2 °F 43.0 °F 30.03 in Calm     99% 0.00 in meteobridge W/m2
04:04 43.2 °F 43.0 °F 30.03 in Calm     99% 0.00 in meteobridge W/m2
04:09 43.2 °F 43.0 °F 30.03 in Calm     99% 0.00 in meteobridge W/m2
04:14 43.2 °F 43.0 °F 30.03 in Calm     99% 0.00 in meteobridge W/m2
04:19 43.2 °F 43.0 °F 30.03 in Calm     99% 0.00 in meteobridge W/m2
04:24 43.2 °F 43.0 °F 30.03 in Calm     99% 0.00 in meteobridge W/m2
04:29 43.2 °F 43.0 °F 30.03 in Calm     99% 0.00 in meteobridge W/m2
04:34 43.0 °F 42.4 °F 30.04 in Calm     98% 0.00 in meteobridge W/m2
04:39 43.0 °F 42.4 °F 30.04 in Calm     98% 0.00 in meteobridge W/m2
04:44 43.0 °F 42.4 °F 30.04 in Calm     98% 0.00 in meteobridge W/m2
04:49 43.0 °F 42.4 °F 30.05 in Calm     98% 0.00 in meteobridge W/m2
04:54 43.0 °F 42.8 °F 30.05 in Calm     99% 0.00 in meteobridge W/m2
04:59 42.8 °F 42.6 °F 30.05 in Calm     99% 0.00 in meteobridge W/m2
05:04 42.6 °F 42.1 °F 30.05 in Calm     98% 0.00 in meteobridge W/m2
05:09 42.6 °F 42.1 °F 30.06 in Calm     98% 0.00 in meteobridge W/m2
05:14 42.4 °F 41.9 °F 30.06 in Calm     98% 0.00 in meteobridge W/m2
05:19 42.3 °F 41.7 °F 30.06 in Calm     98% 0.00 in meteobridge W/m2
05:24 42.3 °F 41.7 °F 30.06 in Calm     98% 0.00 in meteobridge W/m2
05:29 42.1 °F 41.5 °F 30.07 in Calm     98% 0.00 in meteobridge W/m2
05:34 42.1 °F 41.5 °F 30.07 in Calm     98% 0.00 in meteobridge W/m2
05:39 42.3 °F 42.1 °F 30.07 in Calm     99% 0.00 in meteobridge W/m2
05:44 42.3 °F 41.7 °F 30.07 in Calm     98% 0.00 in meteobridge W/m2
05:49 42.3 °F 42.1 °F 30.07 in Calm     99% 0.00 in meteobridge W/m2
05:54 42.3 °F 42.1 °F 30.07 in Calm     99% 0.00 in meteobridge W/m2
05:59 42.3 °F 42.1 °F 30.08 in Calm     99% 0.00 in meteobridge W/m2
06:04 42.3 °F 42.1 °F 30.08 in Calm     99% 0.00 in meteobridge W/m2
06:09 42.3 °F 42.1 °F 30.08 in Calm     99% 0.00 in meteobridge W/m2
06:14 42.3 °F 42.1 °F 30.08 in Calm     99% 0.00 in meteobridge W/m2
06:19 42.3 °F 42.1 °F 30.08 in Calm     99% 0.00 in meteobridge W/m2
06:24 42.3 °F 42.1 °F 30.08 in Calm     99% 0.00 in meteobridge W/m2
06:29 42.3 °F 42.1 °F 30.09 in Calm     99% 0.00 in meteobridge W/m2
06:34 42.3 °F 42.1 °F 30.09 in Calm     99% 0.00 in meteobridge W/m2
06:39 42.3 °F 42.1 °F 30.09 in Calm     99% 0.00 in meteobridge W/m2
06:44 42.3 °F 42.1 °F 30.09 in Calm     99% 0.00 in meteobridge W/m2
06:49 42.1 °F 41.5 °F 30.09 in Calm     98% 0.00 in meteobridge W/m2
06:54 41.9 °F 41.4 °F 30.10 in Calm     98% 0.00 in meteobridge W/m2
06:59 41.7 °F 41.2 °F 30.10 in Calm     98% 0.00 in meteobridge W/m2
07:04 41.5 °F 41.0 °F 30.10 in Calm     98% 0.00 in meteobridge W/m2
07:09 41.4 °F 40.8 °F 30.11 in Calm     98% 0.00 in meteobridge W/m2
07:14 41.2 °F 40.6 °F 30.11 in Calm     98% 0.00 in meteobridge W/m2
07:19 41.2 °F 40.6 °F 30.11 in Calm     98% 0.00 in meteobridge W/m2
07:24 41.2 °F 40.6 °F 30.11 in Calm     98% 0.00 in meteobridge W/m2
07:29 41.2 °F 41.0 °F 30.11 in Calm     99% 0.00 in meteobridge W/m2
07:34 41.4 °F 41.2 °F 30.11 in Calm     99% 0.00 in meteobridge W/m2
07:39 41.4 °F 41.2 °F 30.12 in Calm     99% 0.00 in meteobridge W/m2
07:44 41.5 °F 41.4 °F 30.12 in Calm     99% 0.00 in meteobridge W/m2
07:49 41.7 °F 41.5 °F 30.12 in Calm     99% 0.00 in meteobridge W/m2
07:54 41.7 °F 41.5 °F 30.12 in Calm     99% 0.00 in meteobridge W/m2
07:59 41.7 °F 41.5 °F 30.12 in Calm     99% 0.00 in meteobridge W/m2
08:04 41.7 °F 41.5 °F 30.13 in Calm     99% 0.00 in meteobridge W/m2
08:09 41.9 °F 41.7 °F 30.13 in Calm     99% 0.00 in meteobridge W/m2
08:14 42.1 °F 41.9 °F 30.13 in Calm     99% 0.00 in meteobridge W/m2
08:19 42.1 °F 41.9 °F 30.13 in Calm     99% 0.00 in meteobridge W/m2
08:24 42.3 °F 42.1 °F 30.13 in Calm     99% 0.00 in meteobridge W/m2
08:29 42.4 °F 42.3 °F 30.13 in Calm     99% 0.00 in meteobridge W/m2
08:34 42.6 °F 42.4 °F 30.14 in Calm     99% 0.00 in meteobridge W/m2
08:39 43.0 °F 42.8 °F 30.14 in Calm     99% 0.00 in meteobridge W/m2
08:44 43.0 °F 42.8 °F 30.14 in Calm     99% 0.00 in meteobridge W/m2
08:49 43.2 °F 43.0 °F 30.14 in Calm   1.0 mph 99% 0.00 in meteobridge W/m2
08:54 43.3 °F 43.2 °F 30.14 in Calm     99% 0.00 in meteobridge W/m2
08:59 43.5 °F 43.3 °F 30.14 in Calm     99% 0.00 in meteobridge W/m2
09:04 43.9 °F 43.7 °F 30.14 in Calm     99% 0.00 in meteobridge W/m2
09:09 44.2 °F 44.1 °F 30.14 in Calm     99% 0.00 in meteobridge W/m2
09:14 44.6 °F 44.4 °F 30.14 in Calm     99% 0.00 in meteobridge W/m2
09:19 45.0 °F 44.8 °F 30.14 in Calm     99% 0.00 in meteobridge W/m2
09:24 45.1 °F 45.0 °F 30.14 in Calm     99% 0.00 in meteobridge W/m2
09:29 45.7 °F 45.5 °F 30.15 in Calm     99% 0.00 in meteobridge W/m2
09:34 45.9 °F 45.7 °F 30.15 in Calm     99% 0.00 in meteobridge W/m2
09:39 46.4 °F 45.7 °F 30.15 in Calm     97% 0.00 in meteobridge W/m2
09:44 46.6 °F 45.0 °F 30.15 in Calm     94% 0.00 in meteobridge W/m2
09:49 47.1 °F 44.6 °F 30.15 in Calm   3.0 mph 91% 0.00 in meteobridge W/m2
09:54 47.5 °F 45.5 °F 30.15 in NNW 2.0 mph 3.0 mph 93% 0.00 in meteobridge W/m2
09:59 47.8 °F 44.8 °F 30.16 in Calm     89% 0.00 in meteobridge W/m2
10:04 48.4 °F 45.0 °F 30.16 in NW 2.0 mph 2.0 mph 88% 0.00 in meteobridge W/m2
10:09 48.7 °F 45.0 °F 30.16 in Calm     87% 0.00 in meteobridge W/m2
10:14 49.3 °F 45.5 °F 30.16 in Calm     87% 0.00 in meteobridge W/m2
10:19 49.6 °F 45.7 °F 30.16 in Calm     86% 0.00 in meteobridge W/m2
10:24 50.0 °F 44.8 °F 30.16 in West 0.9 mph 2.0 mph 82% 0.00 in meteobridge W/m2
10:29 50.2 °F 43.9 °F 30.16 in Calm   4.0 mph 79% 0.00 in meteobridge W/m2
10:34 50.7 °F 45.1 °F 30.16 in Calm     81% 0.00 in meteobridge W/m2
10:39 51.3 °F 45.3 °F 30.16 in Calm     80% 0.00 in meteobridge W/m2
10:44 51.8 °F 45.9 °F 30.16 in Calm     80% 0.00 in meteobridge W/m2
10:49 52.5 °F 44.1 °F 30.17 in WSW 2.0 mph 5.0 mph 73% 0.00 in meteobridge W/m2
10:54 52.9 °F 45.5 °F 30.17 in Calm     76% 0.00 in meteobridge W/m2
10:59 53.4 °F 45.3 °F 30.17 in Calm   3.0 mph 74% 0.00 in meteobridge W/m2
11:04 54.0 °F 44.8 °F 30.17 in NE 0.9 mph 3.0 mph 71% 0.00 in meteobridge W/m2
11:09 54.5 °F 44.6 °F 30.17 in NNW 0.9 mph 5.0 mph 69% 0.00 in meteobridge W/m2
11:14 55.2 °F 45.1 °F 30.17 in NW 2.0 mph 2.0 mph 69% 0.00 in meteobridge W/m2
11:19 55.9 °F 44.4 °F 30.17 in North 2.9 mph 3.0 mph 65% 0.00 in meteobridge W/m2
11:24 56.7 °F 43.7 °F 30.17 in Calm   5.0 mph 62% 0.00 in meteobridge W/m2
11:29 57.4 °F 44.1 °F 30.17 in Calm   4.0 mph 61% 0.00 in meteobridge W/m2
11:34 57.7 °F 43.9 °F 30.17 in Calm   7.0 mph 60% 0.00 in meteobridge W/m2
11:39 58.5 °F 43.3 °F 30.17 in NW 2.0 mph 7.0 mph 57% 0.00 in meteobridge W/m2
11:44 58.5 °F 45.1 °F 30.17 in West 0.9 mph 4.0 mph 61% 0.00 in meteobridge W/m2
11:49 59.0 °F 42.4 °F 30.17 in Calm   3.0 mph 54% 0.00 in meteobridge W/m2
11:54 59.4 °F 41.7 °F 30.17 in Calm   3.0 mph 52% 0.00 in meteobridge W/m2
11:59 59.7 °F 43.0 °F 30.17 in Calm     54% 0.00 in meteobridge W/m2
12:04 59.9 °F 42.3 °F 30.17 in Calm   1.0 mph 52% 0.00 in meteobridge W/m2
12:09 60.4 °F 41.7 °F 30.17 in Calm   2.0 mph 50% 0.00 in meteobridge W/m2
12:14 60.8 °F 39.9 °F 30.17 in NW 2.0 mph 6.0 mph 46% 0.00 in meteobridge W/m2
12:19 61.0 °F 37.8 °F 30.17 in NW 4.9 mph 5.0 mph 42% 0.00 in meteobridge W/m2
12:24 61.3 °F 36.1 °F 30.17 in Calm   8.0 mph 39% 0.01 in meteobridge W/m2
12:29 61.7 °F 37.2 °F 30.17 in WNW 2.0 mph 5.0 mph 40% 0.01 in meteobridge W/m2
12:34 61.9 °F 39.2 °F 30.17 in Calm   4.0 mph 43% 0.01 in meteobridge W/m2
12:39 62.2 °F 36.3 °F 30.17 in Calm   7.0 mph 38% 0.01 in meteobridge W/m2
12:44 62.4 °F 39.6 °F 30.17 in Calm   8.0 mph 43% 0.01 in meteobridge W/m2
12:49 62.6 °F 33.8 °F 30.16 in Calm   5.0 mph 34% 0.01 in meteobridge W/m2
12:54 63.0 °F 35.6 °F 30.17 in NW 2.9 mph 8.0 mph 36% 0.01 in meteobridge W/m2
12:59 63.1 °F 35.1 °F 30.16 in West 0.9 mph 6.0 mph 35% 0.01 in meteobridge W/m2
13:04 63.3 °F 36.0 °F 30.16 in Calm   4.0 mph 36% 0.01 in meteobridge W/m2
13:09 63.7 °F 36.9 °F 30.16 in NW 2.0 mph 6.0 mph 37% 0.01 in meteobridge W/m2
13:14 63.9 °F 37.0 °F 30.16 in Calm   6.0 mph 37% 0.01 in meteobridge W/m2
13:19 64.0 °F 35.8 °F 30.16 in Calm   7.0 mph 35% 0.01 in meteobridge W/m2
13:24 64.2 °F 38.1 °F 30.16 in Calm   3.0 mph 38% 0.00 in meteobridge W/m2
13:29 64.4 °F 36.9 °F 30.16 in NW 2.0 mph 7.0 mph 36% 0.00 in meteobridge W/m2
13:34 64.6 °F 34.9 °F 30.16 in NNW 0.9 mph 6.0 mph 33% 0.00 in meteobridge W/m2
13:39 64.8 °F 31.8 °F 30.16 in NW 2.9 mph 11.0 mph 29% 0.00 in meteobridge W/m2
13:44 64.8 °F 34.2 °F 30.16 in WNW 2.0 mph 4.0 mph 32% 0.00 in meteobridge W/m2
13:49 64.9 °F 32.7 °F 30.16 in West 2.9 mph 4.0 mph 30% 0.00 in meteobridge W/m2
13:54 64.9 °F 32.7 °F 30.16 in ENE 6.0 mph 7.0 mph 30% 0.00 in meteobridge W/m2
13:59 64.8 °F 33.4 °F 30.16 in WNW 2.9 mph 5.0 mph 31% 0.00 in meteobridge W/m2
14:04 64.8 °F 35.1 °F 30.16 in ESE 0.9 mph 5.0 mph 33% 0.00 in meteobridge W/m2
14:09 65.1 °F 33.8 °F 30.16 in ENE 2.9 mph 5.0 mph 31% 0.00 in meteobridge W/m2
14:14 65.1 °F 35.2 °F 30.16 in Calm   1.0 mph 33% 0.00 in meteobridge W/m2
14:19 65.5 °F 34.0 °F 30.16 in NNW 2.0 mph 8.0 mph 31% 0.00 in meteobridge W/m2
14:24 65.1 °F 33.8 °F 30.16 in ESE 0.9 mph 7.0 mph 31% 0.00 in meteobridge W/m2
14:29 65.5 °F 34.9 °F 30.16 in NW 2.9 mph 4.0 mph 32% 0.00 in meteobridge W/m2
14:34 65.5 °F 35.6 °F 30.16 in Calm   10.0 mph 33% 0.00 in meteobridge W/m2
14:39 65.7 °F 34.2 °F 30.16 in NNE 0.9 mph 4.0 mph 31% 0.00 in meteobridge W/m2
14:44 65.8 °F 35.2 °F 30.16 in Calm   4.0 mph 32% 0.00 in meteobridge W/m2
14:49 65.7 °F 35.1 °F 30.16 in West 0.9 mph 2.0 mph 32% 0.00 in meteobridge W/m2
14:54 65.8 °F 35.2 °F 30.16 in Calm   2.0 mph 32% 0.00 in meteobridge W/m2
14:59 65.8 °F 35.2 °F 30.16 in WNW 4.0 mph 7.0 mph 32% 0.00 in meteobridge W/m2
15:04 65.7 °F 33.4 °F 30.16 in West 4.9 mph 7.0 mph 30% 0.00 in meteobridge W/m2
15:09 65.7 °F 34.2 °F 30.16 in NW 2.0 mph 10.0 mph 31% 0.00 in meteobridge W/m2
15:14 65.7 °F 35.1 °F 30.16 in Calm   5.0 mph 32% 0.00 in meteobridge W/m2
15:19 66.0 °F 35.2 °F 30.15 in NW 2.0 mph 3.0 mph 32% 0.00 in meteobridge W/m2
15:24 66.0 °F 35.2 °F 30.16 in WSW 0.9 mph 6.0 mph 32% 0.00 in meteobridge W/m2
15:29 66.2 °F 36.3 °F 30.15 in NNW 0.9 mph 5.0 mph 33% 0.00 in meteobridge W/m2
15:34 66.4 °F 35.6 °F 30.15 in NW 2.0 mph 5.0 mph 32% 0.00 in meteobridge W/m2
15:39 66.4 °F 36.3 °F 30.15 in Calm   3.0 mph 33% 0.00 in meteobridge W/m2
15:44 66.0 °F 35.2 °F 30.15 in Calm   9.0 mph 32% 0.00 in meteobridge W/m2
15:49 66.2 °F 39.2 °F 30.15 in Calm   3.0 mph 37% 0.00 in meteobridge W/m2
15:54 66.0 °F 36.1 °F 30.15 in Calm   3.0 mph 33% 0.00 in meteobridge W/m2
15:59 66.0 °F 36.9 °F 30.15 in NNW 0.9 mph 1.0 mph 34% 0.00 in meteobridge W/m2
16:04 66.0 °F 38.3 °F 30.14 in Calm   1.0 mph 36% 0.00 in meteobridge W/m2
16:09 66.2 °F 37.8 °F 30.15 in Calm   4.0 mph 35% 0.00 in meteobridge W/m2
16:14 66.2 °F 37.0 °F 30.15 in NNW 2.0 mph 5.0 mph 34% 0.00 in meteobridge W/m2
16:19 66.2 °F 39.2 °F 30.14 in Calm   1.0 mph 37% 0.00 in meteobridge W/m2
16:24 66.4 °F 37.2 °F 30.14 in Calm   9.0 mph 34% 0.00 in meteobridge W/m2
16:29 66.6 °F 37.4 °F 30.14 in West 0.9 mph 6.0 mph 34% 0.00 in meteobridge W/m2
16:34 66.7 °F 37.4 °F 30.14 in Calm   6.0 mph 34% 0.00 in meteobridge W/m2
16:39 66.6 °F 37.4 °F 30.14 in Calm   2.0 mph 34% 0.00 in meteobridge W/m2
16:44 66.7 °F 38.3 °F 30.14 in NNE 2.0 mph 2.0 mph 35% 0.00 in meteobridge W/m2
16:49 66.7 °F 40.3 °F 30.14 in Calm     38% 0.00 in meteobridge W/m2
16:54 66.7 °F 38.3 °F 30.14 in NW 8.1 mph 8.0 mph 35% 0.00 in meteobridge W/m2
16:59 66.7 °F 39.0 °F 30.14 in NNW 4.0 mph 5.0 mph 36% 0.00 in meteobridge W/m2
17:04 66.6 °F 37.4 °F 30.14 in NE 0.9 mph 1.0 mph 34% 0.00 in meteobridge W/m2
17:09 66.6 °F 38.1 °F 30.14 in North 2.0 mph 3.0 mph 35% 0.00 in meteobridge W/m2
17:14 66.6 °F 38.1 °F 30.14 in NW 0.9 mph 11.0 mph 35% 0.00 in meteobridge W/m2
17:19 66.4 °F 37.2 °F 30.14 in Calm     34% 0.00 in meteobridge W/m2
17:24 66.6 °F 38.1 °F 30.14 in NE 0.9 mph 8.0 mph 35% 0.00 in meteobridge W/m2
17:29 66.6 °F 38.1 °F 30.14 in WSW 2.9 mph 9.0 mph 35% 0.00 in meteobridge W/m2
17:34 66.6 °F 39.6 °F 30.14 in Calm   2.0 mph 37% 0.00 in meteobridge W/m2
17:39 66.6 °F 39.6 °F 30.14 in Calm     37% 0.00 in meteobridge W/m2
17:44 66.4 °F 40.6 °F 30.14 in Calm   1.0 mph 39% 0.00 in meteobridge W/m2
17:49 66.0 °F 38.3 °F 30.14 in Calm   4.0 mph 36% 0.00 in meteobridge W/m2
17:54 66.0 °F 39.7 °F 30.14 in Calm   3.0 mph 38% 0.00 in meteobridge W/m2
17:59 65.8 °F 38.1 °F 30.14 in Calm   5.0 mph 36% 0.00 in meteobridge W/m2
18:04 65.8 °F 37.4 °F 30.14 in Calm   1.0 mph 35% 0.00 in meteobridge W/m2
18:09 65.8 °F 36.7 °F 30.14 in Calm   5.0 mph 34% 0.00 in meteobridge W/m2
18:14 65.8 °F 39.6 °F 30.14 in WNW 0.9 mph 4.0 mph 38% 0.00 in meteobridge W/m2
18:19 65.7 °F 37.9 °F 30.14 in Calm   5.0 mph 36% 0.00 in meteobridge W/m2
18:24 65.7 °F 37.9 °F 30.14 in Calm   3.0 mph 36% 0.00 in meteobridge W/m2
18:29 65.7 °F 38.7 °F 30.14 in Calm   6.0 mph 37% 0.00 in meteobridge W/m2
18:34 65.5 °F 39.9 °F 30.14 in Calm   3.0 mph 39% 0.00 in meteobridge W/m2
18:39 65.3 °F 42.3 °F 30.14 in Calm     43% 0.00 in meteobridge W/m2
18:44 64.9 °F 40.6 °F 30.15 in NW 0.9 mph 3.0 mph 41% 0.00 in meteobridge W/m2
18:49 64.8 °F 39.2 °F 30.15 in WNW 0.9 mph 1.0 mph 39% 0.00 in meteobridge W/m2
18:54 64.6 °F 43.3 °F 30.15 in Calm     46% 0.00 in meteobridge W/m2
18:59 64.2 °F 38.1 °F 30.15 in Calm   2.0 mph 38% 0.00 in meteobridge W/m2
19:04 64.0 °F 39.2 °F 30.15 in Calm   3.0 mph 40% 0.00 in meteobridge W/m2
19:09 64.0 °F 42.8 °F 30.15 in Calm   1.0 mph 46% 0.00 in meteobridge W/m2
19:14 63.9 °F 43.7 °F 30.15 in Calm     48% 0.00 in meteobridge W/m2
19:19 63.3 °F 42.3 °F 30.15 in Calm     46% 0.00 in meteobridge W/m2
19:24 63.0 °F 40.6 °F 30.15 in Calm   2.0 mph 44% 0.00 in meteobridge W/m2
19:29 63.0 °F 41.9 °F 30.16 in Calm     46% 0.00 in meteobridge W/m2
19:34 62.4 °F 41.9 °F 30.16 in Calm   1.0 mph 47% 0.00 in meteobridge W/m2
19:39 62.1 °F 41.5 °F 30.16 in Calm     47% 0.00 in meteobridge W/m2
19:44 61.7 °F 42.3 °F 30.16 in Calm     49% 0.00 in meteobridge W/m2
19:49 61.2 °F 43.9 °F 30.16 in Calm     53% 0.00 in meteobridge W/m2
19:54 60.6 °F 43.3 °F 30.16 in Calm     53% 0.00 in meteobridge W/m2
19:59 60.1 °F 45.3 °F 30.16 in Calm     58% 0.00 in meteobridge W/m2
20:04 59.4 °F 45.0 °F 30.16 in Calm     59% 0.00 in meteobridge W/m2
20:09 58.8 °F 45.0 °F 30.16 in Calm     60% 0.00 in meteobridge W/m2
20:14 58.3 °F 41.7 °F 30.16 in Calm     54% 0.00 in meteobridge W/m2
20:19 57.7 °F 41.2 °F 30.17 in Calm     54% 0.00 in meteobridge W/m2
20:24 57.6 °F 41.0 °F 30.17 in Calm     54% 0.00 in meteobridge W/m2
20:29 57.2 °F 41.2 °F 30.17 in Calm     55% 0.00 in meteobridge W/m2
20:34 56.7 °F 42.1 °F 30.18 in Calm     58% 0.00 in meteobridge W/m2
20:39 56.3 °F 42.1 °F 30.18 in Calm     59% 0.00 in meteobridge W/m2
20:44 55.9 °F 41.9 °F 30.18 in Calm     59% 0.00 in meteobridge W/m2
20:49 55.6 °F 41.9 °F 30.18 in Calm     60% 0.00 in meteobridge W/m2
20:54 54.9 °F 42.4 °F 30.18 in Calm     63% 0.00 in meteobridge W/m2
20:59 54.1 °F 42.3 °F 30.18 in Calm     64% 0.00 in meteobridge W/m2
21:04 54.0 °F 42.4 °F 30.18 in Calm     65% 0.00 in meteobridge W/m2
21:09 53.4 °F 42.3 °F 30.18 in Calm     66% 0.00 in meteobridge W/m2
21:14 53.1 °F 42.4 °F 30.19 in Calm     67% 0.00 in meteobridge W/m2
21:19 52.5 °F 41.9 °F 30.19 in Calm     67% 0.00 in meteobridge W/m2
21:24 52.2 °F 41.9 °F 30.19 in Calm     68% 0.00 in meteobridge W/m2
21:29 51.8 °F 41.9 °F 30.19 in Calm     69% 0.00 in meteobridge W/m2
21:34 51.4 °F 41.9 °F 30.19 in Calm     70% 0.00 in meteobridge W/m2
21:39 51.1 °F 42.1 °F 30.19 in Calm     71% 0.00 in meteobridge W/m2
21:44 50.7 °F 41.7 °F 30.19 in Calm     71% 0.00 in meteobridge W/m2
21:49 50.4 °F 42.1 °F 30.20 in Calm     73% 0.00 in meteobridge W/m2
21:54 50.0 °F 41.7 °F 30.20 in Calm     73% 0.00 in meteobridge W/m2
21:59 49.5 °F 41.5 °F 30.20 in Calm     74% 0.00 in meteobridge W/m2
22:04 49.3 °F 41.7 °F 30.20 in Calm     75% 0.00 in meteobridge W/m2
22:09 48.9 °F 41.7 °F 30.20 in Calm     76% 0.00 in meteobridge W/m2
22:14 48.7 °F 41.9 °F 30.20 in Calm     77% 0.00 in meteobridge W/m2
22:19 48.2 °F 42.1 °F 30.21 in Calm     79% 0.00 in meteobridge W/m2
22:24 47.8 °F 41.7 °F 30.21 in Calm     79% 0.00 in meteobridge W/m2
22:29 47.7 °F 41.7 °F 30.21 in Calm     80% 0.00 in meteobridge W/m2
22:34 47.5 °F 41.9 °F 30.21 in Calm     81% 0.00 in meteobridge W/m2
22:39 47.1 °F 41.9 °F 30.21 in Calm     82% 0.00 in meteobridge W/m2
22:44 46.9 °F 41.7 °F 30.21 in Calm     82% 0.00 in meteobridge W/m2
22:49 46.9 °F 42.1 °F 30.22 in Calm     83% 0.00 in meteobridge W/m2
22:54 46.6 °F 42.1 °F 30.22 in Calm     84% 0.00 in meteobridge W/m2
22:59 46.2 °F 41.7 °F 30.22 in Calm     84% 0.00 in meteobridge W/m2
23:04 46.0 °F 41.7 °F 30.22 in Calm     85% 0.00 in meteobridge W/m2
23:09 46.0 °F 41.7 °F 30.22 in Calm     85% 0.00 in meteobridge W/m2
23:14 45.9 °F 41.9 °F 30.22 in Calm     86% 0.00 in meteobridge W/m2
23:19 45.7 °F 41.7 °F 30.22 in Calm     86% 0.00 in meteobridge W/m2
23:24 45.5 °F 41.9 °F 30.22 in Calm     87% 0.00 in meteobridge W/m2
23:29 45.3 °F 41.7 °F 30.22 in Calm     87% 0.00 in meteobridge W/m2
23:34 45.1 °F 41.5 °F 30.22 in Calm     87% 0.00 in meteobridge W/m2
23:39 45.1 °F 41.5 °F 30.22 in Calm     87% 0.00 in meteobridge W/m2
23:44 45.0 °F 41.4 °F 30.22 in Calm     87% 0.00 in meteobridge W/m2
23:49 44.8 °F 41.4 °F 30.22 in Calm     88% 0.00 in meteobridge W/m2
23:54 44.8 °F 41.7 °F 30.22 in Calm     89% 0.00 in meteobridge W/m2
23:59 44.4 °F 41.2 °F 30.22 in Calm     88% 0.00 in meteobridge W/m2
EllijayWeather
Compliments of Weather Underground - 2.5 mb